createdAt,value
2023-01-26T00:01:19.261Z,55.75
2023-01-26T00:03:46.503Z,55.78
2023-01-26T00:06:16.183Z,55.78
2023-01-26T00:08:45.325Z,55.79
2023-01-26T00:11:15.017Z,55.77
2023-01-26T00:13:42.528Z,55.80
2023-01-26T00:16:13.616Z,55.85
2023-01-26T00:18:42.009Z,55.91
2023-01-26T00:21:12.734Z,56.00
2023-01-26T00:23:39.630Z,56.11
2023-01-26T00:26:08.192Z,56.14
2023-01-26T00:28:36.441Z,56.00
2023-01-26T00:31:04.447Z,56.22
2023-01-26T00:33:31.626Z,56.13
2023-01-26T00:35:58.660Z,56.39
2023-01-26T00:38:26.555Z,56.39
2023-01-26T00:40:53.671Z,56.25
2023-01-26T00:43:20.759Z,56.52
2023-01-26T00:45:47.501Z,56.46
2023-01-26T00:48:14.383Z,56.31
2023-01-26T00:50:41.252Z,56.42
2023-01-26T00:53:09.594Z,56.48
2023-01-26T00:55:36.549Z,56.61
2023-01-26T00:58:06.215Z,56.62
2023-01-26T01:00:34.962Z,56.91
2023-01-26T01:03:02.494Z,56.68
2023-01-26T01:05:31.478Z,56.78
2023-01-26T01:07:58.543Z,56.68
2023-01-26T01:10:27.573Z,56.78
2023-01-26T01:12:55.251Z,56.96
2023-01-26T01:15:24.310Z,56.92
2023-01-26T01:17:51.227Z,56.88
2023-01-26T01:20:18.036Z,56.64
2023-01-26T01:22:46.541Z,56.90
2023-01-26T01:25:13.407Z,56.88
2023-01-26T01:27:40.095Z,57.13
2023-01-26T01:30:08.298Z,56.84
2023-01-26T01:32:36.265Z,57.14
2023-01-26T01:35:03.950Z,57.13
2023-01-26T01:37:31.095Z,57.19
2023-01-26T01:39:57.945Z,57.15
2023-01-26T01:42:25.845Z,57.29
2023-01-26T01:45:26.632Z,57.46
2023-01-26T01:47:57.186Z,57.40
2023-01-26T01:50:26.098Z,57.39
2023-01-26T01:52:55.907Z,57.41
2023-01-26T01:55:25.559Z,57.34
2023-01-26T01:57:58.774Z,57.57
2023-01-26T02:00:26.629Z,57.50
2023-01-26T02:03:11.102Z,57.58
2023-01-26T02:05:44.756Z,57.75
2023-01-26T02:08:13.196Z,57.72
2023-01-26T02:10:41.085Z,57.37
2023-01-26T02:13:08.709Z,57.22
2023-01-26T02:15:35.561Z,57.52
2023-01-26T02:18:05.080Z,57.49
2023-01-26T02:20:37.256Z,57.61
2023-01-26T02:23:21.979Z,57.65
2023-01-26T02:25:49.780Z,57.76
2023-01-26T02:28:18.538Z,57.50
2023-01-26T02:30:46.498Z,57.88
2023-01-26T02:33:26.916Z,57.54
2023-01-26T02:35:58.036Z,57.54
2023-01-26T02:38:30.521Z,57.52
2023-01-26T02:41:06.249Z,57.91
2023-01-26T02:43:33.402Z,57.64
2023-01-26T02:46:00.236Z,57.28
2023-01-26T02:48:45.667Z,57.29
2023-01-26T02:51:12.724Z,57.02
2023-01-26T02:53:39.952Z,57.30
2023-01-26T02:56:07.299Z,57.58
2023-01-26T02:58:34.536Z,57.52
2023-01-26T03:01:01.250Z,57.19
2023-01-26T03:03:41.794Z,57.01
2023-01-26T03:06:10.543Z,57.34
2023-01-26T03:08:38.433Z,57.46
2023-01-26T03:11:07.390Z,57.39
2023-01-26T03:13:34.729Z,57.28
2023-01-26T03:16:06.815Z,57.29
2023-01-26T03:18:53.873Z,57.28
2023-01-26T03:21:42.299Z,57.27
2023-01-26T03:24:31.662Z,57.14
2023-01-26T03:27:19.685Z,57.31
2023-01-26T03:29:46.311Z,57.35
2023-01-26T03:32:13.101Z,57.79
2023-01-26T03:34:42.213Z,57.46
2023-01-26T03:37:09.060Z,57.17
2023-01-26T03:40:06.175Z,57.38
2023-01-26T03:42:53.863Z,57.49
2023-01-26T03:45:40.040Z,57.32
2023-01-26T03:48:28.165Z,57.45
2023-01-26T03:51:13.559Z,57.35
2023-01-26T03:53:58.932Z,57.38
2023-01-26T03:56:25.773Z,57.67
2023-01-26T03:58:58.100Z,57.83
2023-01-26T04:01:28.229Z,57.94
2023-01-26T04:04:20.162Z,57.67
2023-01-26T04:07:07.138Z,57.69
2023-01-26T04:09:37.063Z,57.61
2023-01-26T04:12:04.698Z,57.48
2023-01-26T04:14:52.519Z,57.97
2023-01-26T04:17:42.005Z,57.40
2023-01-26T04:20:27.925Z,57.76
2023-01-26T04:22:54.777Z,57.92
2023-01-26T04:25:22.862Z,57.86
2023-01-26T04:27:50.191Z,57.29
2023-01-26T04:30:17.775Z,57.48
2023-01-26T04:32:46.297Z,57.36
2023-01-26T04:35:13.722Z,57.54
2023-01-26T04:37:42.164Z,57.76
2023-01-26T04:40:10.028Z,57.80
2023-01-26T04:42:37.692Z,57.88
2023-01-26T04:45:05.839Z,58.19
2023-01-26T04:47:32.870Z,57.62
2023-01-26T04:49:59.544Z,58.30
2023-01-26T04:52:26.517Z,57.93
2023-01-26T04:54:53.290Z,57.60
2023-01-26T04:57:21.244Z,57.64
2023-01-26T04:59:50.342Z,58.08
2023-01-26T05:02:19.164Z,57.81
2023-01-26T05:04:46.069Z,57.79
2023-01-26T05:07:14.455Z,57.93
2023-01-26T05:09:41.276Z,57.80
2023-01-26T05:12:42.720Z,57.90
2023-01-26T05:15:29.039Z,58.44
2023-01-26T05:18:10.963Z,58.08
2023-01-26T05:20:45.889Z,57.72
2023-01-26T05:23:17.366Z,58.04
2023-01-26T05:26:04.959Z,58.11
2023-01-26T05:28:41.059Z,58.22
2023-01-26T05:31:08.413Z,58.08
2023-01-26T05:33:35.567Z,57.83
2023-01-26T05:36:06.214Z,58.29
2023-01-26T05:38:34.092Z,58.23
2023-01-26T05:41:00.925Z,57.98
2023-01-26T05:43:30.761Z,58.07
2023-01-26T05:46:21.990Z,58.14
2023-01-26T05:48:49.600Z,57.83
2023-01-26T05:51:16.340Z,57.71
2023-01-26T05:53:43.266Z,57.97
2023-01-26T05:56:10.153Z,58.12
2023-01-26T05:58:42.434Z,58.11
2023-01-26T06:01:09.397Z,58.31
2023-01-26T06:03:49.253Z,58.05
2023-01-26T06:06:16.254Z,57.66
2023-01-26T06:08:50.481Z,58.26
2023-01-26T06:11:35.814Z,58.17
2023-01-26T06:14:14.296Z,58.03
2023-01-26T06:16:41.347Z,58.14
2023-01-26T06:19:10.552Z,58.42
2023-01-26T06:21:38.173Z,58.36
2023-01-26T06:24:05.245Z,58.33
2023-01-26T06:26:32.126Z,60.48
2023-01-26T06:28:59.219Z,59.26
2023-01-26T06:31:29.845Z,58.87
2023-01-26T06:33:58.910Z,58.72
2023-01-26T06:36:28.278Z,58.80
2023-01-26T06:38:56.935Z,58.56
2023-01-26T06:41:24.395Z,58.80
2023-01-26T06:43:51.483Z,58.15
2023-01-26T06:46:19.591Z,58.57
2023-01-26T06:48:47.831Z,58.62
2023-01-26T06:51:18.336Z,58.49
2023-01-26T06:53:58.598Z,58.92
2023-01-26T06:56:32.845Z,58.48
2023-01-26T06:59:25.814Z,58.57
2023-01-26T07:02:20.454Z,58.88
2023-01-26T07:04:48.248Z,58.60
2023-01-26T07:07:15.098Z,58.36
2023-01-26T07:09:41.875Z,58.37
2023-01-26T07:12:09.654Z,58.63
2023-01-26T07:14:36.555Z,58.52
2023-01-26T07:17:03.473Z,58.47
2023-01-26T07:19:31.461Z,58.28
2023-01-26T07:21:58.224Z,58.61
2023-01-26T07:24:25.542Z,58.77
2023-01-26T07:26:52.335Z,58.78
2023-01-26T07:29:19.388Z,58.64
2023-01-26T07:31:46.256Z,58.91
2023-01-26T07:34:13.646Z,58.92
2023-01-26T07:36:40.986Z,58.72
2023-01-26T07:39:08.641Z,58.63
2023-01-26T07:41:36.117Z,58.68
2023-01-26T07:44:13.465Z,59.01
2023-01-26T07:46:41.412Z,58.72
2023-01-26T07:49:08.183Z,58.69
2023-01-26T07:51:34.797Z,59.00
2023-01-26T07:54:02.622Z,58.43
2023-01-26T07:56:29.378Z,58.80
2023-01-26T07:58:56.098Z,58.31
2023-01-26T08:01:23.212Z,58.74
2023-01-26T08:03:51.992Z,58.37
2023-01-26T08:06:19.171Z,58.10
2023-01-26T08:08:51.069Z,58.51
2023-01-26T08:11:23.593Z,58.60
2023-01-26T08:13:50.300Z,58.63
2023-01-26T08:16:17.654Z,58.52
2023-01-26T08:18:46.408Z,59.24
2023-01-26T08:21:15.274Z,59.12
2023-01-26T08:23:42.008Z,59.01
2023-01-26T08:26:12.284Z,58.92
2023-01-26T08:28:39.272Z,58.56
2023-01-26T08:31:08.943Z,58.79
2023-01-26T08:33:35.772Z,58.66
2023-01-26T08:36:07.206Z,58.54
2023-01-26T08:38:34.582Z,58.07
2023-01-26T08:41:02.218Z,56.79
2023-01-26T08:43:29.307Z,56.17
2023-01-26T08:45:56.440Z,55.54
2023-01-26T08:48:23.127Z,55.33
2023-01-26T08:50:55.194Z,54.91
2023-01-26T08:53:23.079Z,54.45
2023-01-26T08:55:52.510Z,54.29
2023-01-26T08:58:20.531Z,54.22
2023-01-26T09:00:47.722Z,53.94
2023-01-26T09:03:14.950Z,53.75
2023-01-26T09:05:41.844Z,53.78
2023-01-26T09:08:09.653Z,53.40
2023-01-26T09:10:39.414Z,53.20
2023-01-26T09:13:06.408Z,53.10
2023-01-26T09:15:33.176Z,52.92
2023-01-26T09:18:01.130Z,52.82
2023-01-26T09:20:28.730Z,52.70
2023-01-26T09:22:55.397Z,52.72
2023-01-26T09:25:22.064Z,52.55
2023-01-26T09:27:48.898Z,52.42
2023-01-26T09:30:16.202Z,52.39
2023-01-26T09:32:43.046Z,52.35
2023-01-26T09:35:14.290Z,52.41
2023-01-26T09:37:43.480Z,52.17
2023-01-26T09:40:19.639Z,52.25
2023-01-26T09:43:05.398Z,52.02
2023-01-26T09:46:10.680Z,51.80
2023-01-26T09:48:43.149Z,51.85
2023-01-26T09:51:32.188Z,51.89
2023-01-26T09:54:22.333Z,51.84
2023-01-26T09:56:48.997Z,51.69
2023-01-26T09:59:44.289Z,51.68
2023-01-26T10:02:41.992Z,51.59
2023-01-26T10:05:17.810Z,51.66
2023-01-26T10:07:47.975Z,51.84
2023-01-26T10:10:28.312Z,51.81
2023-01-26T10:12:56.351Z,51.18
2023-01-26T10:15:38.843Z,51.51
2023-01-26T10:18:19.836Z,51.44
2023-01-26T10:20:51.449Z,51.53
2023-01-26T10:23:23.439Z,51.36
2023-01-26T10:25:52.010Z,51.38
2023-01-26T10:28:26.138Z,51.38
2023-01-26T10:30:53.681Z,51.10
2023-01-26T10:33:30.830Z,51.14
2023-01-26T10:35:57.660Z,51.11
2023-01-26T10:38:33.633Z,51.23
2023-01-26T10:41:05.248Z,51.21
2023-01-26T10:43:41.008Z,51.02
2023-01-26T10:46:23.681Z,50.87
2023-01-26T10:49:00.762Z,50.83
2023-01-26T10:51:33.332Z,50.85
2023-01-26T10:54:20.228Z,50.83
2023-01-26T10:56:56.725Z,50.72
2023-01-26T10:59:40.664Z,50.58
2023-01-26T11:02:19.140Z,50.73
2023-01-26T11:05:08.745Z,50.49
2023-01-26T11:07:40.832Z,50.78
2023-01-26T11:10:26.828Z,50.58
2023-01-26T11:13:13.077Z,50.56
2023-01-26T11:15:42.060Z,50.41
2023-01-26T11:18:37.505Z,50.36
2023-01-26T11:21:11.130Z,50.34
2023-01-26T11:23:48.436Z,49.88
2023-01-26T11:26:32.982Z,49.98
2023-01-26T11:29:30.982Z,50.22
2023-01-26T11:32:03.676Z,50.02
2023-01-26T11:34:42.211Z,50.03
2023-01-26T11:37:26.689Z,49.82
2023-01-26T11:40:25.795Z,50.00
2023-01-26T11:43:13.496Z,49.81
2023-01-26T11:46:02.505Z,49.81
2023-01-26T11:49:00.338Z,49.89
2023-01-26T11:51:29.634Z,49.74
2023-01-26T11:54:01.921Z,49.73
2023-01-26T11:56:34.674Z,49.80
2023-01-26T11:59:16.507Z,49.66
2023-01-26T12:02:00.013Z,49.70
2023-01-26T12:04:28.483Z,49.80
2023-01-26T12:07:02.382Z,50.84
2023-01-26T12:09:38.636Z,51.38
2023-01-26T12:12:12.580Z,51.84
2023-01-26T12:15:05.802Z,52.11
2023-01-26T12:17:51.284Z,51.85
2023-01-26T12:20:39.657Z,52.33
2023-01-26T12:23:09.257Z,52.55
2023-01-26T12:25:37.588Z,52.30
2023-01-26T12:28:07.497Z,52.35
2023-01-26T12:30:42.099Z,52.45
2023-01-26T12:33:11.094Z,52.51
2023-01-26T14:09:52.642Z,55.32
2023-01-26T14:12:25.140Z,55.07
2023-01-26T14:15:01.898Z,54.91
2023-01-26T14:17:36.906Z,55.06
2023-01-26T14:20:32.594Z,55.23
2023-01-26T14:23:21.549Z,56.63
2023-01-26T14:26:54.212Z,56.78
2023-01-26T14:29:24.473Z,56.36
2023-01-26T14:31:53.630Z,55.75
2023-01-26T14:34:23.423Z,55.70
2023-01-26T14:37:12.855Z,55.82
2023-01-26T14:39:40.214Z,55.69
2023-01-26T14:42:07.295Z,55.77
2023-01-26T14:44:35.104Z,55.61
2023-01-26T14:47:08.141Z,55.54
2023-01-26T14:49:57.656Z,55.40
2023-01-26T14:52:27.597Z,55.38
2023-01-26T14:54:58.196Z,55.34
2023-01-26T14:57:27.837Z,55.57
2023-01-26T14:59:58.078Z,55.57
2023-01-26T15:02:27.796Z,55.53
2023-01-26T15:04:59.500Z,55.48
2023-01-26T15:07:41.183Z,55.63
2023-01-26T15:10:31.034Z,55.54
2023-01-26T15:13:08.495Z,55.71
2023-01-26T15:15:41.215Z,55.43
2023-01-26T15:18:13.832Z,55.23
2023-01-26T15:21:12.450Z,55.06
2023-01-26T15:23:45.709Z,54.98
2023-01-26T15:26:15.398Z,54.89
2023-01-26T15:28:42.465Z,54.36
2023-01-26T15:31:21.282Z,54.07
2023-01-26T15:33:53.649Z,53.75
2023-01-26T15:36:27.507Z,53.38
2023-01-26T15:39:12.892Z,53.25
2023-01-26T15:41:44.896Z,53.27
2023-01-26T15:44:21.541Z,53.01
2023-01-26T15:46:48.426Z,53.00
2023-01-26T15:49:20.134Z,52.90
2023-01-26T15:52:05.576Z,52.59
2023-01-26T15:54:32.285Z,52.75
2023-01-26T15:56:59.780Z,52.71
2023-01-26T15:59:26.778Z,52.74
2023-01-26T16:01:53.755Z,52.56
2023-01-26T16:04:20.650Z,52.55
2023-01-26T16:06:47.648Z,52.76
2023-01-26T16:09:14.713Z,52.56
2023-01-26T16:11:48.974Z,52.79
2023-01-26T16:14:16.592Z,52.66
2023-01-26T16:16:43.758Z,52.63
2023-01-26T16:19:10.801Z,52.79
2023-01-26T16:21:41.032Z,52.57
2023-01-26T16:24:10.563Z,52.54
2023-01-26T16:26:37.463Z,52.75
2023-01-26T16:29:04.341Z,52.48
2023-01-26T16:31:33.670Z,52.51
2023-01-26T16:34:01.291Z,52.59
2023-01-26T16:36:29.601Z,52.56
2023-01-26T16:39:15.561Z,52.68
2023-01-26T16:41:42.324Z,52.71
2023-01-26T16:44:14.571Z,52.73
2023-01-26T16:46:42.781Z,52.83
2023-01-26T16:49:14.379Z,52.72
2023-01-26T16:51:42.628Z,52.57
2023-01-26T16:54:10.443Z,52.55
2023-01-26T16:56:37.459Z,52.64
2023-01-26T16:59:06.034Z,52.70
2023-01-26T17:01:37.596Z,52.59
2023-01-26T17:04:05.416Z,52.58
2023-01-26T17:06:32.897Z,52.50
2023-01-26T17:08:59.682Z,52.02
2023-01-26T17:11:28.761Z,51.35
2023-01-26T17:13:56.721Z,51.21
2023-01-26T17:16:29.411Z,50.94
2023-01-26T17:18:56.487Z,51.01
2023-01-26T17:21:23.553Z,51.01
2023-01-26T17:23:51.940Z,50.65
2023-01-26T17:26:20.078Z,50.45
2023-01-26T17:28:51.965Z,50.54
2023-01-26T17:31:20.974Z,50.53
2023-01-26T17:33:50.064Z,50.44
2023-01-26T17:36:18.535Z,50.29
2023-01-26T17:38:45.776Z,50.26
2023-01-26T17:41:12.526Z,50.37
2023-01-26T17:43:39.254Z,50.54
2023-01-26T17:46:13.022Z,51.31
2023-01-26T17:48:40.849Z,51.67
2023-01-26T17:51:09.349Z,51.93
2023-01-26T17:53:40.105Z,52.10
2023-01-26T17:56:09.422Z,52.19
2023-01-26T17:58:36.880Z,52.04
2023-01-26T18:01:06.160Z,52.13
2023-01-26T18:03:33.733Z,52.28
2023-01-26T18:06:01.374Z,52.20
2023-01-26T18:08:28.188Z,52.13
2023-01-26T18:11:02.895Z,52.13
2023-01-26T18:13:31.990Z,52.31
2023-01-26T18:15:59.627Z,52.32
2023-01-26T18:18:28.673Z,52.16
2023-01-26T18:20:56.079Z,52.65
2023-01-26T18:23:24.708Z,52.32
2023-01-26T18:25:54.651Z,52.37
2023-01-26T18:28:21.376Z,52.40
2023-01-26T18:30:48.685Z,52.24
2023-01-26T18:33:18.069Z,52.35
2023-01-26T18:35:45.183Z,52.05
2023-01-26T18:38:12.109Z,52.13
2023-01-26T18:40:40.167Z,52.27
2023-01-26T18:43:07.187Z,52.32
2023-01-26T18:45:34.013Z,52.15
2023-01-26T18:48:03.959Z,52.06
2023-01-26T18:50:31.122Z,52.19
2023-01-26T18:52:59.741Z,52.28
2023-01-26T18:55:26.648Z,52.27
2023-01-26T18:57:55.323Z,52.33
2023-01-26T19:00:22.451Z,52.08
2023-01-26T19:02:49.297Z,52.14
2023-01-26T19:05:16.285Z,52.00
2023-01-26T19:07:44.025Z,52.18
2023-01-26T19:10:10.944Z,51.93
2023-01-26T19:12:37.739Z,52.16
2023-01-26T19:15:05.245Z,52.05
2023-01-26T19:17:32.378Z,52.07
2023-01-26T19:19:59.207Z,51.85
2023-01-26T19:22:26.043Z,51.80
2023-01-26T19:24:53.021Z,52.02
2023-01-26T19:27:20.075Z,51.97
2023-01-26T19:29:46.928Z,51.92
2023-01-26T19:32:13.690Z,51.84
2023-01-26T19:34:40.614Z,51.91
2023-01-26T19:37:07.359Z,51.88
2023-01-26T19:39:36.371Z,51.82
2023-01-26T19:42:03.092Z,51.50
2023-01-26T19:44:48.542Z,52.02
2023-01-26T19:47:15.405Z,51.57
2023-01-26T19:49:42.285Z,51.57
2023-01-26T19:52:09.206Z,51.63
2023-01-26T19:54:36.057Z,52.10
2023-01-26T19:57:03.124Z,52.00
2023-01-26T19:59:29.835Z,52.06
2023-01-26T20:01:56.617Z,51.83
2023-01-26T20:04:23.384Z,51.80
2023-01-26T20:06:50.166Z,51.95
2023-01-26T20:09:19.723Z,51.67
2023-01-26T20:11:48.591Z,51.88
2023-01-26T20:14:15.508Z,51.79
2023-01-26T20:16:42.605Z,51.98
2023-01-26T20:19:11.564Z,52.01
2023-01-26T20:21:38.918Z,51.87
2023-01-26T20:24:06.969Z,51.75
2023-01-26T20:26:34.825Z,51.86
2023-01-26T20:29:01.885Z,52.11
2023-01-26T20:31:28.705Z,52.15
2023-01-26T20:33:56.127Z,51.91
2023-01-26T20:36:28.771Z,52.10
2023-01-26T20:38:55.951Z,51.97
2023-01-26T20:41:25.900Z,51.87
2023-01-26T20:44:00.858Z,51.76
2023-01-26T20:46:39.977Z,51.80
2023-01-26T20:49:10.262Z,51.94
2023-01-26T20:51:42.522Z,51.89
2023-01-26T20:54:13.577Z,52.04
2023-01-26T20:56:40.942Z,52.00
2023-01-26T20:59:07.876Z,51.95
2023-01-26T21:01:36.483Z,51.78
2023-01-26T21:04:06.732Z,51.84
2023-01-26T21:06:34.509Z,51.88
2023-01-26T21:09:01.923Z,51.82
2023-01-26T21:11:30.748Z,52.44
2023-01-26T21:14:00.641Z,52.35
2023-01-26T21:16:28.820Z,52.16
2023-01-26T21:18:55.872Z,52.21
2023-01-26T21:21:23.281Z,52.19
2023-01-26T21:23:50.953Z,52.37
2023-01-26T21:26:22.321Z,52.20
2023-01-26T21:28:53.782Z,52.35
2023-01-26T21:31:22.700Z,52.09
2023-01-26T21:33:50.476Z,52.46
2023-01-26T21:36:29.139Z,52.32
2023-01-26T21:38:57.491Z,51.97
2023-01-26T21:41:48.675Z,52.08
2023-01-26T21:44:53.526Z,51.98
2023-01-26T21:47:20.333Z,52.09
2023-01-26T21:49:47.813Z,52.14
2023-01-26T21:52:33.382Z,52.37
2023-01-26T21:55:00.207Z,52.40
2023-01-26T21:57:45.697Z,52.26
2023-01-26T22:00:32.494Z,52.46
2023-01-26T22:03:00.748Z,52.38
2023-01-26T22:05:27.579Z,52.23
2023-01-26T22:07:54.247Z,52.26
2023-01-26T22:10:21.052Z,52.02
2023-01-26T22:12:47.763Z,52.36
2023-01-26T22:15:15.171Z,52.02
2023-01-26T22:17:41.987Z,52.34
2023-01-26T22:20:09.992Z,52.25
2023-01-26T22:22:36.931Z,51.90
2023-01-26T22:25:03.865Z,52.28
2023-01-26T22:27:30.576Z,52.13
2023-01-26T22:29:57.467Z,52.04
2023-01-26T22:32:24.490Z,52.11
2023-01-26T22:34:51.694Z,52.04
2023-01-26T22:37:18.802Z,52.25
2023-01-26T22:39:45.681Z,52.38
2023-01-26T22:42:12.408Z,52.55
2023-01-26T22:44:39.291Z,52.81
2023-01-26T22:47:06.149Z,52.87
2023-01-26T22:49:33.051Z,52.97
2023-01-26T22:51:59.922Z,52.82
2023-01-26T22:54:27.784Z,53.01
2023-01-26T22:56:54.717Z,53.07
2023-01-26T22:59:21.641Z,53.15
2023-01-26T23:01:48.561Z,53.26
2023-01-26T23:04:15.556Z,53.24
2023-01-26T23:06:42.373Z,53.12
2023-01-26T23:09:09.285Z,53.11
2023-01-26T23:11:36.084Z,53.32
2023-01-26T23:14:03.073Z,53.37
2023-01-26T23:16:30.329Z,53.20
2023-01-26T23:18:58.444Z,53.13
2023-01-26T23:21:26.741Z,53.31
2023-01-26T23:23:53.730Z,53.65
2023-01-26T23:26:21.015Z,53.58
2023-01-26T23:28:48.445Z,53.50
2023-01-26T23:31:16.820Z,53.71
2023-01-26T23:33:44.311Z,53.79
2023-01-26T23:36:13.712Z,53.97
2023-01-26T23:38:40.804Z,53.83
2023-01-26T23:41:12.060Z,53.94
2023-01-26T23:43:39.163Z,54.05
2023-01-26T23:46:07.980Z,53.99
2023-01-26T23:48:34.997Z,54.11
2023-01-26T23:51:04.838Z,54.00
2023-01-26T23:53:32.464Z,54.41
2023-01-26T23:56:14.861Z,54.44
2023-01-26T23:58:41.600Z,54.43
